Terminal Aerodrome Forecast
Issued by NWS Spokane, WA

Home | Current Version | Previous Version | Text Only | Print | Product List | Glossary On
Versions: 1 2 3 4 5 6 7 8 9 10 11 12 13 14 15 16
000
FTUS46 KOTX 241135
TAFEAT
TAF
KEAT 241135Z 2412/2512 33005KT P6SM -RA BKN005 OVC012
     FM241300 33007KT P6SM -SHRA BKN019 OVC040
     FM241800 30011G18KT P6SM SCT050 BKN090
     FM242100 30021G30KT P6SM SCT070
     FM250200 29011KT P6SM SCT070=

USA.gov is the U.S. government's official web portal to all federal, state and local government web resources and services.